KDMN

Deming Municipal Airport

Deming, New Mexico, USA
KDMN 212320Z 2200/2224 08012G22KT P6SM BKN080 FM220600 08011KT P6SM FEW060
Issued Valid From Valid To
Sep-21 @ 23:20 UTC
(4 hours ago)
Sep-22 @ 00:00 UTC
(3 hours ago)
Sep-23 @ 00:00 UTC
(in 21 hours)
to
to
KDMN 212320Z 2200/2224 08012G22KT P6SM BKN080 FM220600 08011KT P6SM FEW060
Issued Sep-21 @ 23:20 UTC
(4 hours ago)
Valid From Sep-22 @ 00:00 UTC
(3 hours ago)
Valid To Sep-23 @ 00:00 UTC
(in 21 hours)
-
-